createdAt,value
2022-08-19T00:01:38.667Z,17.28
2022-08-19T00:04:08.651Z,16.65
2022-08-19T00:06:37.608Z,16.89
2022-08-19T00:09:06.900Z,16.84
2022-08-19T00:11:34.546Z,16.95
2022-08-19T00:14:01.298Z,17.03
2022-08-19T00:16:28.318Z,16.88
2022-08-19T00:18:55.712Z,16.85
2022-08-19T00:21:24.055Z,16.88
2022-08-19T00:23:50.888Z,16.55
2022-08-19T00:26:17.518Z,16.47
2022-08-19T00:28:44.148Z,16.59
2022-08-19T00:31:11.513Z,16.75
2022-08-19T00:33:38.138Z,16.60
2022-08-19T00:36:08.045Z,16.61
2022-08-19T00:38:38.086Z,16.71
2022-08-19T00:41:09.006Z,16.77
2022-08-19T00:43:35.840Z,16.89
2022-08-19T00:46:02.698Z,16.97
2022-08-19T00:48:29.507Z,16.79
2022-08-19T00:50:56.259Z,16.71
2022-08-19T00:53:27.043Z,17.03
2022-08-19T00:55:57.676Z,16.62
2022-08-19T00:58:29.843Z,16.49
2022-08-19T01:00:56.644Z,16.65
2022-08-19T01:03:23.742Z,16.56
2022-08-19T01:05:52.880Z,17.08
2022-08-19T01:08:20.379Z,16.85
2022-08-19T01:10:57.442Z,16.69
2022-08-19T01:13:27.578Z,16.85
2022-08-19T01:16:07.303Z,16.93
2022-08-19T01:18:38.962Z,16.68
2022-08-19T01:21:17.009Z,16.95
2022-08-19T01:23:44.965Z,17.09
2022-08-19T01:26:18.720Z,17.04
2022-08-19T01:28:48.112Z,17.06
2022-08-19T01:31:26.432Z,16.57
2022-08-19T01:33:56.400Z,17.12
2022-08-19T01:36:29.608Z,16.54
2022-08-19T01:38:57.488Z,16.93
2022-08-19T01:41:24.041Z,16.81
2022-08-19T01:44:13.665Z,16.67
2022-08-19T01:46:38.888Z,17.10
2022-08-19T01:49:06.315Z,17.04
2022-08-19T01:51:39.965Z,16.79
2022-08-19T01:54:11.597Z,16.93
2022-08-19T01:56:38.450Z,16.68
2022-08-19T01:59:11.528Z,17.07
2022-08-19T02:01:38.416Z,17.15
2022-08-19T02:04:05.106Z,16.90
2022-08-19T02:06:31.755Z,17.03
2022-08-19T02:08:58.352Z,16.94
2022-08-19T02:11:28.757Z,16.60
2022-08-19T02:13:56.401Z,16.66
2022-08-19T02:16:23.379Z,16.69
2022-08-19T02:18:50.616Z,16.71
2022-08-19T02:21:22.759Z,17.16
2022-08-19T02:23:51.225Z,17.10
2022-08-19T02:26:18.727Z,17.16
2022-08-19T02:28:45.782Z,17.24
2022-08-19T02:31:19.468Z,17.31
2022-08-19T02:33:47.063Z,16.98
2022-08-19T02:36:15.538Z,16.95
2022-08-19T02:38:43.322Z,17.41
2022-08-19T02:41:20.757Z,17.42
2022-08-19T02:44:26.626Z,17.39
2022-08-19T02:46:36.326Z,17.39
2022-08-19T02:49:08.234Z,17.04
2022-08-19T02:51:38.827Z,17.00
2022-08-19T02:54:06.642Z,17.00
2022-08-19T02:56:36.535Z,17.36
2022-08-19T02:59:04.083Z,17.18
2022-08-19T03:01:33.508Z,16.99
2022-08-19T03:04:03.460Z,17.31
2022-08-19T03:06:31.273Z,17.29
2022-08-19T03:08:58.326Z,17.30
2022-08-19T03:11:28.367Z,17.28
2022-08-19T03:13:55.344Z,17.05
2022-08-19T03:16:24.391Z,16.81
2022-08-19T03:18:52.010Z,16.87
2022-08-19T03:21:22.205Z,17.30
2022-08-19T03:23:48.957Z,17.21
2022-08-19T03:26:17.075Z,17.09
2022-08-19T03:28:49.483Z,16.99
2022-08-19T03:31:41.730Z,16.79
2022-08-19T03:34:13.521Z,16.97
2022-08-19T03:36:40.765Z,17.03
2022-08-19T03:39:07.409Z,16.53
2022-08-19T03:41:45.152Z,16.89
2022-08-19T03:44:19.294Z,16.94
2022-08-19T03:46:55.509Z,16.37
2022-08-19T03:49:27.205Z,16.49
2022-08-19T03:51:56.917Z,16.95
2022-08-19T03:54:25.310Z,16.78
2022-08-19T03:56:54.050Z,16.89
2022-08-19T03:59:31.020Z,16.60
2022-08-19T04:02:00.691Z,16.55
2022-08-19T04:04:29.308Z,16.92
2022-08-19T04:06:57.085Z,16.45
2022-08-19T04:09:23.752Z,16.47
2022-08-19T04:11:53.558Z,16.84
2022-08-19T04:14:23.195Z,16.50
2022-08-19T04:17:15.187Z,16.61
2022-08-19T04:19:42.217Z,16.62
2022-08-19T04:22:08.807Z,16.66
2022-08-19T04:24:36.036Z,16.71
2022-08-19T04:27:03.289Z,16.58
2022-08-19T04:29:30.389Z,16.58
2022-08-19T04:31:57.807Z,16.84
2022-08-19T04:34:26.290Z,16.82
2022-08-19T04:36:55.047Z,16.87
2022-08-19T04:39:28.640Z,16.57
2022-08-19T04:41:55.277Z,16.57
2022-08-19T04:44:22.290Z,16.44
2022-08-19T04:46:51.207Z,16.42
2022-08-19T04:49:23.473Z,16.81
2022-08-19T04:51:52.535Z,16.53
2022-08-19T04:54:37.686Z,16.83
2022-08-19T04:57:10.735Z,16.60
2022-08-19T04:59:39.546Z,16.81
2022-08-19T05:02:08.486Z,16.92
2022-08-19T05:04:35.316Z,16.63
2022-08-19T05:07:02.594Z,16.81
2022-08-19T05:09:52.635Z,16.67
2022-08-19T05:12:18.273Z,16.92
2022-08-19T05:14:45.295Z,17.06
2022-08-19T05:17:27.238Z,16.95
2022-08-19T05:19:56.270Z,17.07
2022-08-19T05:22:22.832Z,16.95
2022-08-19T05:25:11.196Z,17.13
2022-08-19T05:27:36.535Z,17.17
2022-08-19T05:30:03.865Z,17.15
2022-08-19T05:32:31.607Z,17.00
2022-08-19T05:34:58.244Z,16.89
2022-08-19T05:37:24.956Z,17.38
2022-08-19T05:39:51.836Z,17.10
2022-08-19T05:42:19.074Z,17.10
2022-08-19T05:44:45.609Z,16.58
2022-08-19T05:47:14.158Z,16.40
2022-08-19T05:49:40.737Z,16.75
2022-08-19T05:52:11.075Z,16.73
2022-08-19T05:54:39.575Z,16.72
2022-08-19T05:57:06.334Z,16.92
2022-08-19T05:59:33.201Z,17.46
2022-08-19T06:02:00.582Z,17.01
2022-08-19T06:04:27.259Z,17.18
2022-08-19T06:06:54.630Z,17.64
2022-08-19T06:09:22.922Z,17.80
2022-08-19T06:11:56.692Z,17.29
2022-08-19T06:14:28.237Z,17.31
2022-08-19T06:16:55.361Z,17.39
2022-08-19T06:19:26.671Z,17.60
2022-08-19T06:21:54.256Z,17.17
2022-08-19T06:24:24.238Z,16.57
2022-08-19T06:26:55.649Z,17.02
2022-08-19T06:29:25.769Z,16.91
2022-08-19T06:31:55.518Z,17.46
2022-08-19T06:34:22.135Z,17.36
2022-08-19T06:36:50.718Z,17.48
2022-08-19T06:39:26.839Z,17.11
2022-08-19T06:41:58.996Z,16.89
2022-08-19T06:44:31.873Z,16.80
2022-08-19T06:46:58.746Z,16.96
2022-08-19T06:49:25.534Z,16.18
2022-08-19T06:51:52.294Z,16.12
2022-08-19T06:54:20.138Z,16.27
2022-08-19T06:56:47.526Z,17.20
2022-08-19T06:59:20.489Z,16.89
2022-08-19T07:01:50.268Z,16.82
2022-08-19T07:04:27.727Z,17.24
2022-08-19T07:07:00.679Z,16.98
2022-08-19T07:09:57.132Z,17.09
2022-08-19T07:12:30.178Z,17.45
2022-08-19T07:14:58.249Z,17.48
2022-08-19T07:17:24.870Z,17.28
2022-08-19T07:19:51.818Z,17.64
2022-08-19T07:22:22.494Z,17.49
2022-08-19T07:24:51.937Z,17.81
2022-08-19T07:27:19.313Z,17.55
2022-08-19T07:29:56.044Z,17.28
2022-08-19T07:32:25.727Z,17.47
2022-08-19T07:34:52.372Z,17.52
2022-08-19T07:37:19.079Z,17.40
2022-08-19T07:39:45.722Z,17.50
2022-08-19T07:42:13.259Z,17.64
2022-08-19T07:47:06.891Z,18.02
2022-08-19T07:49:38.671Z,17.60
2022-08-19T07:52:09.126Z,17.96
2022-08-19T07:54:38.612Z,18.30
2022-08-19T07:57:05.963Z,18.05
2022-08-19T07:59:33.069Z,17.86
2022-08-19T08:01:59.806Z,17.72
2022-08-19T08:04:27.675Z,18.56
2022-08-19T08:06:54.664Z,17.88
2022-08-19T08:09:34.713Z,18.27
2022-08-19T08:12:32.517Z,17.98
2022-08-19T08:14:55.941Z,18.03
2022-08-19T08:17:30.899Z,18.05
2022-08-19T08:20:14.137Z,17.48
2022-08-19T08:22:47.772Z,18.05
2022-08-19T08:25:19.019Z,17.90
2022-08-19T08:27:48.147Z,18.08
2022-08-19T08:30:24.999Z,18.21
2022-08-19T08:32:52.295Z,18.48
2022-08-19T08:35:22.313Z,18.33
2022-08-19T08:37:51.309Z,18.24
2022-08-19T08:40:39.691Z,18.30
2022-08-19T08:43:44.922Z,18.16
2022-08-19T08:46:31.116Z,17.97
2022-08-19T08:49:06.763Z,18.36
2022-08-19T08:51:38.097Z,18.18
2022-08-19T08:54:07.337Z,18.32
2022-08-19T08:56:39.480Z,17.77
2022-08-19T08:59:11.655Z,18.09
2022-08-19T09:01:38.348Z,17.51
2022-08-19T09:04:07.867Z,17.72
2022-08-19T09:06:50.164Z,17.86
2022-08-19T09:09:34.829Z,17.54
2022-08-19T09:12:27.051Z,18.04
2022-08-19T09:15:02.463Z,18.24
2022-08-19T09:17:32.268Z,18.47
2022-08-19T09:20:09.020Z,18.51
2022-08-19T09:22:40.129Z,18.67
2022-08-19T09:25:09.424Z,18.69
2022-08-19T09:27:43.237Z,18.36
2022-08-19T09:30:23.109Z,17.90
2022-08-19T09:32:52.858Z,18.28
2022-08-19T09:35:24.327Z,18.78
2022-08-19T09:37:54.853Z,18.42
2022-08-19T09:40:25.269Z,18.75
2022-08-19T09:42:52.552Z,18.94
2022-08-19T09:45:21.609Z,18.90
2022-08-19T09:47:49.318Z,18.53
2022-08-19T09:50:16.321Z,18.06
2022-08-19T09:52:55.111Z,18.72
2022-08-19T09:55:32.053Z,19.01
2022-08-19T09:58:03.189Z,18.64
2022-08-19T10:00:30.611Z,18.57
2022-08-19T10:02:57.160Z,18.67
2022-08-19T10:05:26.872Z,19.32
2022-08-19T10:07:53.941Z,19.16
2022-08-19T10:10:23.751Z,18.89
2022-08-19T10:12:51.259Z,18.78
2022-08-19T10:15:18.000Z,18.89
2022-08-19T10:17:56.437Z,18.94
2022-08-19T10:20:23.172Z,18.57
2022-08-19T10:22:51.883Z,18.02
2022-08-19T10:25:20.018Z,18.31
2022-08-19T10:27:51.187Z,18.41
2022-08-19T10:30:18.327Z,18.91
2022-08-19T10:32:47.104Z,19.25
2022-08-19T10:35:21.703Z,19.22
2022-08-19T10:37:56.807Z,19.27
2022-08-19T10:40:24.779Z,19.14
2022-08-19T10:42:51.410Z,19.29
2022-08-19T10:45:18.291Z,19.30
2022-08-19T10:47:44.950Z,19.00
2022-08-19T10:50:12.199Z,18.53
2022-08-19T10:52:49.801Z,18.92
2022-08-19T10:55:23.871Z,18.90
2022-08-19T10:58:02.170Z,18.74
2022-08-19T11:00:29.642Z,18.71
2022-08-19T11:02:56.187Z,18.94
2022-08-19T11:05:24.499Z,18.95
2022-08-19T11:07:51.592Z,19.09
2022-08-19T11:10:21.373Z,19.10
2022-08-19T11:12:48.822Z,19.57
2022-08-19T11:15:15.747Z,19.22
2022-08-19T11:17:43.028Z,19.03
2022-08-19T11:20:11.385Z,19.52
2022-08-19T11:22:41.437Z,20.00
2022-08-19T11:25:10.287Z,20.03
2022-08-19T11:27:43.454Z,20.03
2022-08-19T11:30:13.206Z,19.99
2022-08-19T11:32:45.668Z,19.57
2022-08-19T11:35:13.937Z,19.76
2022-08-19T11:37:40.504Z,20.15
2022-08-19T11:40:08.034Z,20.62
2022-08-19T11:42:35.024Z,20.32
2022-08-19T11:45:01.630Z,20.22
2022-08-19T11:47:28.184Z,20.07
2022-08-19T11:49:55.059Z,19.73
2022-08-19T11:52:21.595Z,20.32
2022-08-19T11:54:48.420Z,20.62
2022-08-19T11:57:15.241Z,20.05
2022-08-19T11:59:41.807Z,20.54
2022-08-19T12:02:08.353Z,20.70
2022-08-19T12:04:35.726Z,20.43
2022-08-19T12:07:02.296Z,21.13
2022-08-19T12:09:31.069Z,21.12
2022-08-19T12:11:57.741Z,21.39
2022-08-19T12:14:24.389Z,21.41
2022-08-19T12:16:52.716Z,21.35
2022-08-19T12:19:21.713Z,21.58
2022-08-19T12:21:50.100Z,22.02
2022-08-19T12:24:16.870Z,21.32
2022-08-19T12:26:53.704Z,21.81
2022-08-19T12:29:23.798Z,21.51
2022-08-19T12:31:51.003Z,22.15
2022-08-19T12:34:17.729Z,22.17
2022-08-19T12:36:44.287Z,22.02
2022-08-19T12:39:11.179Z,22.29
2022-08-19T12:41:45.055Z,22.52
2022-08-19T12:44:21.211Z,22.81
2022-08-19T12:46:55.751Z,22.88
2022-08-19T12:49:52.036Z,23.31
2022-08-19T12:52:10.221Z,23.75
2022-08-19T12:54:38.210Z,24.21
2022-08-19T12:57:09.181Z,24.35
2022-08-19T12:59:36.640Z,23.81
2022-08-19T13:02:05.523Z,23.67
2022-08-19T13:04:32.521Z,24.51
2022-08-19T13:06:59.620Z,24.58
2022-08-19T13:09:26.295Z,23.54
2022-08-19T13:11:52.856Z,23.84
2022-08-19T13:14:19.552Z,22.22
2022-08-19T13:16:46.148Z,24.32
2022-08-19T13:19:12.767Z,24.36
2022-08-19T13:21:39.735Z,24.39
2022-08-19T13:24:09.452Z,22.58
2022-08-19T13:26:36.027Z,22.54
2022-08-19T13:29:02.668Z,23.64
2022-08-19T13:31:32.186Z,23.16
2022-08-19T13:33:58.764Z,23.38
2022-08-19T13:36:25.291Z,23.93
2022-08-19T13:38:51.947Z,23.66
2022-08-19T13:41:18.578Z,23.69
2022-08-19T13:43:45.293Z,23.50
2022-08-19T13:46:13.221Z,24.06
2022-08-19T13:48:39.850Z,23.37
2022-08-19T13:51:06.493Z,24.11
2022-08-19T13:53:33.162Z,24.34
2022-08-19T13:55:59.721Z,24.66
2022-08-19T13:58:26.442Z,25.25
2022-08-19T14:00:53.183Z,24.83
2022-08-19T14:03:20.025Z,23.64
2022-08-19T14:05:46.734Z,22.15
2022-08-19T14:08:13.447Z,23.90
2022-08-19T14:10:40.133Z,23.91
2022-08-19T14:13:06.809Z,22.31
2022-08-19T14:15:33.430Z,23.35
2022-08-19T14:18:00.156Z,23.84
2022-08-19T14:20:27.603Z,24.61
2022-08-19T14:22:55.490Z,24.93
2022-08-19T14:25:27.517Z,24.88
2022-08-19T14:27:55.098Z,24.29
2022-08-19T14:30:27.866Z,25.19
2022-08-19T14:32:59.647Z,25.29
2022-08-19T14:35:28.607Z,25.50
2022-08-19T14:37:55.983Z,24.63
2022-08-19T14:40:25.640Z,24.89
2022-08-19T14:42:58.984Z,24.92
2022-08-19T14:45:29.388Z,24.62
2022-08-19T14:47:56.333Z,24.15
2022-08-19T14:50:23.420Z,23.52
2022-08-19T14:52:50.812Z,23.74
2022-08-19T14:55:18.592Z,23.88
2022-08-19T14:57:45.989Z,24.05
2022-08-19T15:00:13.714Z,23.49
2022-08-19T15:02:41.296Z,22.56
2022-08-19T15:05:08.491Z,23.96
2022-08-19T15:07:35.035Z,23.85
2022-08-19T15:10:01.958Z,23.53
2022-08-19T15:12:29.976Z,23.72
2022-08-19T15:14:57.208Z,24.20
2022-08-19T15:17:44.994Z,23.76
2022-08-19T15:20:13.587Z,24.21
2022-08-19T15:22:40.528Z,23.62
2022-08-19T15:25:11.545Z,24.06
2022-08-19T15:27:39.858Z,24.58
2022-08-19T15:30:08.049Z,23.95
2022-08-19T15:32:35.299Z,22.68
2022-08-19T15:35:01.883Z,23.57
2022-08-19T15:37:28.674Z,23.03
2022-08-19T15:39:55.330Z,23.40
2022-08-19T15:42:29.410Z,23.43
2022-08-19T15:44:58.260Z,22.81
2022-08-19T15:47:35.132Z,23.09
2022-08-19T15:50:12.753Z,23.20
2022-08-19T15:52:50.056Z,23.10
2022-08-19T15:55:29.929Z,23.02
2022-08-19T15:58:20.547Z,23.38
2022-08-19T16:00:57.395Z,23.09
2022-08-19T16:03:25.021Z,22.19
2022-08-19T16:05:53.476Z,22.86
2022-08-19T16:08:20.044Z,22.74
2022-08-19T16:10:46.781Z,24.04
2022-08-19T16:13:13.332Z,24.09
2022-08-19T16:15:40.109Z,23.56
2022-08-19T16:18:06.781Z,24.19
2022-08-19T16:20:35.590Z,22.65
2022-08-19T16:23:02.656Z,23.21
2022-08-19T16:25:29.468Z,22.86
2022-08-19T16:28:07.384Z,22.74
2022-08-19T16:30:35.961Z,22.80
2022-08-19T16:33:02.691Z,21.55
2022-08-19T16:35:29.503Z,22.58
2022-08-19T16:37:56.489Z,21.92
2022-08-19T16:40:23.313Z,22.77
2022-08-19T16:42:49.879Z,23.23
2022-08-19T16:45:16.637Z,23.41
2022-08-19T16:47:43.191Z,23.18
2022-08-19T16:50:09.940Z,22.50
2022-08-19T16:52:36.694Z,23.06
2022-08-19T16:55:05.332Z,23.29
2022-08-19T16:57:32.271Z,22.94
2022-08-19T16:59:59.454Z,23.91
2022-08-19T17:02:29.709Z,23.58
2022-08-19T17:04:59.053Z,24.41
2022-08-19T17:07:28.068Z,23.93
2022-08-19T17:09:55.992Z,23.78
2022-08-19T17:12:30.190Z,23.92
2022-08-19T17:14:57.627Z,23.49
2022-08-19T17:17:28.745Z,23.60
2022-08-19T17:19:55.827Z,23.44
2022-08-19T17:22:22.476Z,23.68
2022-08-19T17:24:49.347Z,23.98
2022-08-19T17:27:15.899Z,23.58
2022-08-19T17:29:46.757Z,23.19
2022-08-19T17:32:14.047Z,22.87
2022-08-19T17:34:40.744Z,23.00
2022-08-19T17:37:07.437Z,22.88
2022-08-19T17:39:39.010Z,23.28
2022-08-19T17:42:07.031Z,23.07
2022-08-19T17:44:35.172Z,23.23
2022-08-19T17:47:02.179Z,23.14
2022-08-19T17:49:28.726Z,23.00
2022-08-19T17:51:55.696Z,22.47
2022-08-19T17:54:22.251Z,22.78
2022-08-19T17:56:49.042Z,22.73
2022-08-19T17:59:16.761Z,23.03
2022-08-19T18:01:53.468Z,22.43
2022-08-19T18:04:22.714Z,22.82
2022-08-19T18:06:52.962Z,22.56
2022-08-19T18:09:24.045Z,22.91
2022-08-19T18:11:53.258Z,22.81
2022-08-19T18:14:22.613Z,22.91
2022-08-19T18:16:49.252Z,22.74
2022-08-19T18:19:16.427Z,22.69
2022-08-19T18:21:42.995Z,22.80
2022-08-19T18:24:09.604Z,23.12
2022-08-19T18:26:36.175Z,22.85
2022-08-19T18:29:03.139Z,22.65
2022-08-19T18:31:29.678Z,22.62
2022-08-19T18:33:56.429Z,21.53
2022-08-19T18:36:50.194Z,21.93
2022-08-19T18:39:09.865Z,22.58
2022-08-19T18:41:39.100Z,22.62
2022-08-19T18:44:05.692Z,22.23
2022-08-19T18:46:32.995Z,22.24
2022-08-19T18:49:03.513Z,21.77
2022-08-19T18:51:30.079Z,21.92
2022-08-19T18:53:56.909Z,22.13
2022-08-19T18:56:23.496Z,21.58
2022-08-19T18:58:50.280Z,21.21
2022-08-19T19:01:21.118Z,21.86
2022-08-19T19:03:51.591Z,21.29
2022-08-19T19:06:24.848Z,21.83
2022-08-19T19:08:53.417Z,21.80
2022-08-19T19:11:24.795Z,21.76
2022-08-19T19:13:52.136Z,21.15
2022-08-19T19:16:23.752Z,21.19
2022-08-19T19:18:51.019Z,20.90
2022-08-19T19:21:19.143Z,21.34
2022-08-19T19:23:46.000Z,21.14
2022-08-19T19:26:13.380Z,21.11
2022-08-19T19:28:41.767Z,21.32
2022-08-19T19:31:08.348Z,20.90
2022-08-19T19:33:34.937Z,20.85
2022-08-19T19:36:01.523Z,21.11
2022-08-19T19:38:28.361Z,20.60
2022-08-19T19:40:54.883Z,20.98
2022-08-19T19:43:21.647Z,20.64
2022-08-19T19:45:48.510Z,20.71
2022-08-19T19:48:15.659Z,20.92
2022-08-19T19:50:44.017Z,20.78
2022-08-19T19:53:11.119Z,20.62
2022-08-19T19:55:37.661Z,20.41
2022-08-19T19:58:04.370Z,20.54
2022-08-19T20:00:30.945Z,20.40
2022-08-19T20:02:57.538Z,20.35
2022-08-19T20:05:25.075Z,20.38
2022-08-19T20:07:54.559Z,20.36
2022-08-19T20:10:21.714Z,20.02
2022-08-19T20:12:48.491Z,20.21
2022-08-19T20:15:15.138Z,19.78
2022-08-19T20:17:41.792Z,20.00
2022-08-19T20:20:13.773Z,19.94
2022-08-19T20:22:41.733Z,19.77
2022-08-19T20:25:09.313Z,19.81
2022-08-19T20:27:39.854Z,19.44
2022-08-19T20:30:13.074Z,19.80
2022-08-19T20:32:46.321Z,19.36
2022-08-19T20:35:14.764Z,19.44
2022-08-19T20:37:41.763Z,19.54
2022-08-19T20:40:09.748Z,19.41
2022-08-19T20:42:39.707Z,19.28
2022-08-19T20:45:08.294Z,19.29
2022-08-19T20:47:45.078Z,19.14
2022-08-19T20:50:11.702Z,18.98
2022-08-19T20:52:39.140Z,18.81
2022-08-19T20:55:06.182Z,18.71
2022-08-19T20:57:32.893Z,18.89
2022-08-19T20:59:59.481Z,18.91
2022-08-19T21:02:26.280Z,18.78
2022-08-19T21:04:52.844Z,18.84
2022-08-19T21:07:25.627Z,19.20
2022-08-19T21:10:06.227Z,18.99
2022-08-19T21:12:32.815Z,18.53
2022-08-19T21:14:59.450Z,18.57
2022-08-19T21:17:26.090Z,18.79
2022-08-19T21:19:52.683Z,18.66
2022-08-19T21:22:19.236Z,18.59
2022-08-19T21:24:45.959Z,18.80
2022-08-19T21:27:12.533Z,18.72
2022-08-19T21:29:39.179Z,18.51
2022-08-19T21:32:05.995Z,18.65
2022-08-19T21:34:32.587Z,18.32
2022-08-19T21:36:59.150Z,18.67
2022-08-19T21:39:25.841Z,18.39
2022-08-19T21:41:52.424Z,18.31
2022-08-19T21:44:19.091Z,18.34
2022-08-19T21:46:45.781Z,18.35
2022-08-19T21:49:17.346Z,18.30
2022-08-19T21:51:43.998Z,18.41
2022-08-19T21:54:14.150Z,18.52
2022-08-19T21:56:41.852Z,18.02
2022-08-19T21:59:08.543Z,18.17
2022-08-19T22:01:35.165Z,18.10
2022-08-19T22:04:01.826Z,18.37
2022-08-19T22:06:28.461Z,18.19
2022-08-19T22:08:55.633Z,18.14
2022-08-19T22:11:24.233Z,18.13
2022-08-19T22:13:51.058Z,18.14
2022-08-19T22:16:17.885Z,18.31
2022-08-19T22:18:44.567Z,17.84
2022-08-19T22:21:12.319Z,17.35
2022-08-19T22:23:42.629Z,17.57
2022-08-19T22:26:09.287Z,17.18
2022-08-19T22:28:36.233Z,17.57
2022-08-19T22:31:03.419Z,17.18
2022-08-19T22:33:30.436Z,17.10
2022-08-19T22:35:57.040Z,17.02
2022-08-19T22:38:23.798Z,17.04
2022-08-19T22:40:52.396Z,17.39
2022-08-19T22:43:25.079Z,17.30
2022-08-19T22:45:53.675Z,17.01
2022-08-19T22:48:23.862Z,16.90
2022-08-19T22:50:51.894Z,17.31
2022-08-19T22:53:18.434Z,16.91
2022-08-19T22:55:45.173Z,16.93
2022-08-19T22:58:11.950Z,16.45
2022-08-19T23:00:38.625Z,16.53
2022-08-19T23:03:05.254Z,16.66
2022-08-19T23:05:31.949Z,16.57
2022-08-19T23:07:58.972Z,16.52
2022-08-19T23:10:27.980Z,16.88
2022-08-19T23:12:57.231Z,16.57
2022-08-19T23:15:26.541Z,16.80
2022-08-19T23:17:56.300Z,16.42
2022-08-19T23:20:24.865Z,16.43
2022-08-19T23:22:51.436Z,16.25
2022-08-19T23:25:22.502Z,16.69
2022-08-19T23:27:49.872Z,16.61
2022-08-19T23:30:16.548Z,16.73
2022-08-19T23:32:43.204Z,16.41
2022-08-19T23:35:09.829Z,16.68
2022-08-19T23:37:36.490Z,16.61
2022-08-19T23:40:05.836Z,16.86
2022-08-19T23:42:32.890Z,16.57
2022-08-19T23:45:01.567Z,16.51
2022-08-19T23:47:28.624Z,16.70
2022-08-19T23:49:56.439Z,16.68
2022-08-19T23:52:23.530Z,16.12
2022-08-19T23:54:50.090Z,16.36
2022-08-19T23:57:16.969Z,16.22
2022-08-19T23:59:44.062Z,15.70
